createdAt,value
2022-12-22T00:00:00.000Z,10.98
2022-12-22T00:15:00.000Z,12.19
2022-12-22T00:30:00.000Z,11.49
2022-12-22T00:45:00.000Z,13.33
2022-12-22T01:00:00.000Z,13.68
2022-12-22T01:15:00.000Z,13.66
2022-12-22T01:30:00.000Z,13.24
2022-12-22T01:45:00.000Z,13.73
2022-12-22T02:00:00.000Z,12.14
2022-12-22T02:15:00.000Z,12.28
2022-12-22T02:30:00.000Z,10.78
2022-12-22T02:45:00.000Z,10.26
2022-12-22T03:15:00.000Z,12
2022-12-22T03:15:00.000Z,10.09
2022-12-22T03:30:00.000Z,11.06
2022-12-22T03:45:00.000Z,29.29
2022-12-22T04:00:00.000Z,13.18
2022-12-22T04:15:00.000Z,10.04
2022-12-22T04:30:00.000Z,9.61
2022-12-22T04:45:00.000Z,9.48
2022-12-22T05:00:00.000Z,8.49
2022-12-22T05:15:00.000Z,9.55
2022-12-22T05:30:00.000Z,10.72
2022-12-22T05:45:00.000Z,10.72
2022-12-22T06:00:00.000Z,10.87
2022-12-22T06:15:00.000Z,14.11
2022-12-22T06:30:00.000Z,14.73
2022-12-22T06:45:00.000Z,14.74
2022-12-22T07:00:00.000Z,15.89
2022-12-22T07:15:00.000Z,12.58
2022-12-22T07:30:00.000Z,12.42
2022-12-22T07:45:00.000Z,13.45
2022-12-22T08:00:00.000Z,20.15
2022-12-22T08:15:00.000Z,15.24
2022-12-22T08:30:00.000Z,20.84
2022-12-22T08:45:00.000Z,10.82
2022-12-22T09:00:00.000Z,12.42
2022-12-22T09:15:00.000Z,11.38
2022-12-22T09:30:00.000Z,9.04
2022-12-22T09:45:00.000Z,9.21
2022-12-22T10:00:00.000Z,7.72
2022-12-22T10:15:00.000Z,7.86
2022-12-22T10:30:00.000Z,12
2022-12-22T10:45:00.000Z,8.49
2022-12-22T11:00:00.000Z,7.86
2022-12-22T11:15:00.000Z,8.32
2022-12-22T11:30:00.000Z,9.38
2022-12-22T11:45:00.000Z,7.93
2022-12-22T12:00:00.000Z,9.34
2022-12-22T12:15:00.000Z,9.48
2022-12-22T12:30:00.000Z,12.06
2022-12-22T12:45:00.000Z,11.98
2022-12-22T13:00:00.000Z,10.67
2022-12-22T13:15:00.000Z,16.85
2022-12-22T13:30:00.000Z,14.27
2022-12-22T13:45:00.000Z,14.91
2022-12-22T14:00:00.000Z,14.61
2022-12-22T14:15:00.000Z,11.32
2022-12-22T14:30:00.000Z,10.29
2022-12-22T14:45:00.000Z,11.2
2022-12-22T15:00:00.000Z,12.2
2022-12-22T15:15:00.000Z,15.25
2022-12-22T15:30:00.000Z,11
2022-12-22T15:45:00.000Z,15.11
2022-12-22T16:00:00.000Z,14.01
2022-12-22T16:15:00.000Z,13.74
2022-12-22T16:30:00.000Z,11.92
2022-12-22T16:45:00.000Z,10.27
2022-12-22T17:00:00.000Z,10.31
2022-12-22T17:15:00.000Z,13.31
2022-12-22T17:30:00.000Z,17.53
2022-12-22T17:45:00.000Z,15.76
2022-12-22T18:00:00.000Z,17.35
2022-12-22T18:15:00.000Z,22.26
2022-12-22T18:30:00.000Z,25.15
2022-12-22T18:45:00.000Z,25.39
2022-12-22T19:00:00.000Z,32.16
2022-12-22T19:15:00.000Z,29.28
2022-12-22T19:30:00.000Z,21.67
2022-12-22T19:45:00.000Z,28.88
2022-12-22T20:00:00.000Z,26.85
2022-12-22T20:15:00.000Z,19.74
2022-12-22T20:30:00.000Z,18.13
2022-12-22T20:45:00.000Z,15.66
2022-12-22T21:00:00.000Z,14.88
2022-12-22T21:15:00.000Z,14.44
2022-12-22T21:30:00.000Z,14.16
2022-12-22T21:45:00.000Z,15
2022-12-22T22:00:00.000Z,18.05
2022-12-22T22:15:00.000Z,13.73
2022-12-22T22:30:00.000Z,12.91
2022-12-22T22:45:00.000Z,14.01
2022-12-22T23:00:00.000Z,12.72
2022-12-22T23:15:00.000Z,10.27
2022-12-22T23:30:00.000Z,12.46
2022-12-22T23:45:00.000Z,11.85
